sensor_id;sensor_type;location;lat;lon;timestamp;temperature;humidity
22562;DHT22;11447;50.562;8.504;2023-03-12T00:02:26;1.00;70.50
22562;DHT22;11447;50.562;8.504;2023-03-12T00:04:55;0.90;70.60
22562;DHT22;11447;50.562;8.504;2023-03-12T00:07:22;1.00;70.40
22562;DHT22;11447;50.562;8.504;2023-03-12T00:09:48;0.90;71.10
22562;DHT22;11447;50.562;8.504;2023-03-12T00:12:15;1.00;69.90
22562;DHT22;11447;50.562;8.504;2023-03-12T00:14:41;0.90;70.60
22562;DHT22;11447;50.562;8.504;2023-03-12T00:17:10;1.10;70.60
22562;DHT22;11447;50.562;8.504;2023-03-12T00:19:37;1.00;70.00
22562;DHT22;11447;50.562;8.504;2023-03-12T00:22:04;1.20;70.20
22562;DHT22;11447;50.562;8.504;2023-03-12T00:24:30;1.10;70.40
22562;DHT22;11447;50.562;8.504;2023-03-12T00:26:59;1.00;71.10
22562;DHT22;11447;50.562;8.504;2023-03-12T00:29:26;0.70;70.70
22562;DHT22;11447;50.562;8.504;2023-03-12T00:31:52;1.00;70.30
22562;DHT22;11447;50.562;8.504;2023-03-12T00:34:19;0.80;71.50
22562;DHT22;11447;50.562;8.504;2023-03-12T00:36:46;1.00;70.30
22562;DHT22;11447;50.562;8.504;2023-03-12T00:39:12;1.00;70.30
22562;DHT22;11447;50.562;8.504;2023-03-12T00:41:39;1.10;70.90
22562;DHT22;11447;50.562;8.504;2023-03-12T00:44:05;0.80;71.00
22562;DHT22;11447;50.562;8.504;2023-03-12T00:46:34;0.80;71.40
22562;DHT22;11447;50.562;8.504;2023-03-12T00:49:01;1.10;70.80
22562;DHT22;11447;50.562;8.504;2023-03-12T00:51:28;0.90;70.80
22562;DHT22;11447;50.562;8.504;2023-03-12T00:53:54;0.90;71.20
22562;DHT22;11447;50.562;8.504;2023-03-12T00:56:21;1.10;71.50
22562;DHT22;11447;50.562;8.504;2023-03-12T00:58:48;0.80;71.00
22562;DHT22;11447;50.562;8.504;2023-03-12T01:01:14;0.90;71.50
22562;DHT22;11447;50.562;8.504;2023-03-12T01:03:41;0.90;71.80
22562;DHT22;11447;50.562;8.504;2023-03-12T01:06:08;1.00;71.50
22562;DHT22;11447;50.562;8.504;2023-03-12T01:08:34;0.80;71.40
22562;DHT22;11447;50.562;8.504;2023-03-12T01:11:01;1.10;71.40
22562;DHT22;11447;50.562;8.504;2023-03-12T01:13:28;0.80;71.40
22562;DHT22;11447;50.562;8.504;2023-03-12T01:15:54;0.90;71.60
22562;DHT22;11447;50.562;8.504;2023-03-12T01:18:21;0.70;72.00
22562;DHT22;11447;50.562;8.504;2023-03-12T01:20:47;0.70;74.30
22562;DHT22;11447;50.562;8.504;2023-03-12T01:23:19;0.40;74.80
22562;DHT22;11447;50.562;8.504;2023-03-12T01:25:45;0.30;75.20
22562;DHT22;11447;50.562;8.504;2023-03-12T01:28:12;0.30;75.50
22562;DHT22;11447;50.562;8.504;2023-03-12T01:30:39;0.80;73.50
22562;DHT22;11447;50.562;8.504;2023-03-12T01:33:06;0.60;73.30
22562;DHT22;11447;50.562;8.504;2023-03-12T01:35:36;0.80;72.90
22562;DHT22;11447;50.562;8.504;2023-03-12T01:38:13;0.40;74.70
22562;DHT22;11447;50.562;8.504;2023-03-12T01:40:40;0.80;73.80
22562;DHT22;11447;50.562;8.504;2023-03-12T01:46:15;0.70;73.50
22562;DHT22;11447;50.562;8.504;2023-03-12T01:48:43;0.70;73.60
22562;DHT22;11447;50.562;8.504;2023-03-12T01:51:11;0.60;74.70
22562;DHT22;11447;50.562;8.504;2023-03-12T01:53:39;0.50;74.50
22562;DHT22;11447;50.562;8.504;2023-03-12T01:56:08;0.40;75.40
22562;DHT22;11447;50.562;8.504;2023-03-12T01:58:37;0.30;76.10
22562;DHT22;11447;50.562;8.504;2023-03-12T02:01:05;0.10;77.00
22562;DHT22;11447;50.562;8.504;2023-03-12T02:03:32;-3276.70;77.30
22562;DHT22;11447;50.562;8.504;2023-03-12T02:06:07;0.00;76.40
22562;DHT22;11447;50.562;8.504;2023-03-12T02:08:40;-3276.70;77.30
22562;DHT22;11447;50.562;8.504;2023-03-12T02:11:08;0.00;77.20
22562;DHT22;11447;50.562;8.504;2023-03-12T02:13:37;0.00;77.00
22562;DHT22;11447;50.562;8.504;2023-03-12T02:16:03;0.00;77.40
22562;DHT22;11447;50.562;8.504;2023-03-12T02:18:30;0.00;77.30
22562;DHT22;11447;50.562;8.504;2023-03-12T02:23:28;0.10;77.20
22562;DHT22;11447;50.562;8.504;2023-03-12T02:25:56;0.30;76.80
22562;DHT22;11447;50.562;8.504;2023-03-12T02:28:25;0.30;77.00
22562;DHT22;11447;50.562;8.504;2023-03-12T02:30:56;0.00;77.20
22562;DHT22;11447;50.562;8.504;2023-03-12T02:33:26;0.30;77.20
22562;DHT22;11447;50.562;8.504;2023-03-12T02:35:52;0.10;77.20
22562;DHT22;11447;50.562;8.504;2023-03-12T02:39:02;0.00;77.40
22562;DHT22;11447;50.562;8.504;2023-03-12T02:43:36;0.00;77.40
22562;DHT22;11447;50.562;8.504;2023-03-12T02:46:03;-3276.60;77.40
22562;DHT22;11447;50.562;8.504;2023-03-12T02:48:30;0.00;77.40
22562;DHT22;11447;50.562;8.504;2023-03-12T02:50:56;0.00;77.40
22562;DHT22;11447;50.562;8.504;2023-03-12T02:53:23;0.20;77.40
22562;DHT22;11447;50.562;8.504;2023-03-12T02:55:49;-3276.50;77.40
22562;DHT22;11447;50.562;8.504;2023-03-12T02:58:16;0.00;77.40
22562;DHT22;11447;50.562;8.504;2023-03-12T03:00:45;-3276.60;77.40
22562;DHT22;11447;50.562;8.504;2023-03-12T03:03:12;-3276.70;77.40
22562;DHT22;11447;50.562;8.504;2023-03-12T03:05:38;-3276.70;77.40
22562;DHT22;11447;50.562;8.504;2023-03-12T03:08:05;-3276.70;77.40
22562;DHT22;11447;50.562;8.504;2023-03-12T03:10:31;0.00;77.40
22562;DHT22;11447;50.562;8.504;2023-03-12T03:13:00;0.10;77.20
22562;DHT22;11447;50.562;8.504;2023-03-12T03:15:27;0.10;77.40
22562;DHT22;11447;50.562;8.504;2023-03-12T03:17:53;-3276.60;77.40
22562;DHT22;11447;50.562;8.504;2023-03-12T03:20:20;-3276.60;77.40
22562;DHT22;11447;50.562;8.504;2023-03-12T03:22:50;-3276.60;77.40
22562;DHT22;11447;50.562;8.504;2023-03-12T03:25:17;-3276.70;77.40
22562;DHT22;11447;50.562;8.504;2023-03-12T03:27:47;-3276.70;77.40
22562;DHT22;11447;50.562;8.504;2023-03-12T03:30:14;0.00;77.40
22562;DHT22;11447;50.562;8.504;2023-03-12T03:32:42;0.00;77.40
22562;DHT22;11447;50.562;8.504;2023-03-12T03:35:08;-3276.60;77.40
22562;DHT22;11447;50.562;8.504;2023-03-12T03:37:35;-3276.60;77.40
22562;DHT22;11447;50.562;8.504;2023-03-12T03:40:02;-3276.60;77.40
22562;DHT22;11447;50.562;8.504;2023-03-12T03:42:29;-3276.70;77.40
22562;DHT22;11447;50.562;8.504;2023-03-12T03:44:55;-3276.30;77.40
22562;DHT22;11447;50.562;8.504;2023-03-12T03:47:24;-3276.50;77.40
22562;DHT22;11447;50.562;8.504;2023-03-12T03:49:51;-3276.60;77.40
22562;DHT22;11447;50.562;8.504;2023-03-12T03:52:20;-3276.70;77.40
22562;DHT22;11447;50.562;8.504;2023-03-12T03:54:46;-3276.60;77.40
22562;DHT22;11447;50.562;8.504;2023-03-12T03:57:13;-3276.40;77.40
22562;DHT22;11447;50.562;8.504;2023-03-12T03:59:39;-3276.70;77.40
22562;DHT22;11447;50.562;8.504;2023-03-12T04:02:06;-3276.70;77.40
22562;DHT22;11447;50.562;8.504;2023-03-12T04:04:33;-3276.70;77.40
22562;DHT22;11447;50.562;8.504;2023-03-12T04:07:01;-3276.60;77.40
22562;DHT22;11447;50.562;8.504;2023-03-12T04:09:28;-3276.70;77.40
22562;DHT22;11447;50.562;8.504;2023-03-12T04:11:55;-3276.60;77.40
22562;DHT22;11447;50.562;8.504;2023-03-12T04:14:24;-3276.60;77.40
22562;DHT22;11447;50.562;8.504;2023-03-12T04:16:51;-3276.50;77.40
22562;DHT22;11447;50.562;8.504;2023-03-12T04:19:17;-3276.60;77.40
22562;DHT22;11447;50.562;8.504;2023-03-12T04:21:46;-3276.60;77.40
22562;DHT22;11447;50.562;8.504;2023-03-12T04:24:15;-3276.70;77.40
22562;DHT22;11447;50.562;8.504;2023-03-12T04:26:42;0.00;77.40
22562;DHT22;11447;50.562;8.504;2023-03-12T04:29:11;-3276.70;77.40
22562;DHT22;11447;50.562;8.504;2023-03-12T04:31:37;0.10;77.40
22562;DHT22;11447;50.562;8.504;2023-03-12T04:34:04;0.00;77.40
22562;DHT22;11447;50.562;8.504;2023-03-12T04:36:33;-3276.70;77.40
22562;DHT22;11447;50.562;8.504;2023-03-12T04:39:00;-3276.60;77.40
22562;DHT22;11447;50.562;8.504;2023-03-12T04:41:33;-3276.70;77.40
22562;DHT22;11447;50.562;8.504;2023-03-12T04:44:02;-3276.60;77.40
22562;DHT22;11447;50.562;8.504;2023-03-12T04:46:29;-3276.40;77.40
22562;DHT22;11447;50.562;8.504;2023-03-12T04:48:55;-3276.40;77.40
22562;DHT22;11447;50.562;8.504;2023-03-12T04:51:23;-3276.50;77.40
22562;DHT22;11447;50.562;8.504;2023-03-12T04:53:52;-3276.70;77.40
22562;DHT22;11447;50.562;8.504;2023-03-12T04:56:18;0.00;77.40
22562;DHT22;11447;50.562;8.504;2023-03-12T04:58:45;0.00;77.40
22562;DHT22;11447;50.562;8.504;2023-03-12T05:01:30;-3276.60;77.40
22562;DHT22;11447;50.562;8.504;2023-03-12T05:03:59;-3276.40;77.40
22562;DHT22;11447;50.562;8.504;2023-03-12T05:06:26;-3276.40;77.40
22562;DHT22;11447;50.562;8.504;2023-03-12T05:08:53;-3276.30;77.40
22562;DHT22;11447;50.562;8.504;2023-03-12T05:11:19;-3276.40;77.40
22562;DHT22;11447;50.562;8.504;2023-03-12T05:13:46;-3276.40;77.40
22562;DHT22;11447;50.562;8.504;2023-03-12T05:16:13;-3276.60;77.40
22562;DHT22;11447;50.562;8.504;2023-03-12T05:18:40;-3276.40;77.40
22562;DHT22;11447;50.562;8.504;2023-03-12T05:21:13;-3276.50;77.40
22562;DHT22;11447;50.562;8.504;2023-03-12T05:23:40;-3276.30;77.40
22562;DHT22;11447;50.562;8.504;2023-03-12T05:26:17;0.00;77.40
22562;DHT22;11447;50.562;8.504;2023-03-12T05:28:44;-3276.50;77.40
22562;DHT22;11447;50.562;8.504;2023-03-12T05:31:11;-3276.40;77.40
22562;DHT22;11447;50.562;8.504;2023-03-12T05:33:38;-3276.60;77.40
22562;DHT22;11447;50.562;8.504;2023-03-12T05:36:05;-3276.40;77.40
22562;DHT22;11447;50.562;8.504;2023-03-12T05:38:32;-3276.30;77.40
22562;DHT22;11447;50.562;8.504;2023-03-12T05:40:59;-3276.50;77.40
22562;DHT22;11447;50.562;8.504;2023-03-12T05:43:28;-3276.50;77.40
22562;DHT22;11447;50.562;8.504;2023-03-12T05:45:58;-3276.70;77.40
22562;DHT22;11447;50.562;8.504;2023-03-12T05:48:27;-3276.40;77.40
22562;DHT22;11447;50.562;8.504;2023-03-12T05:50:54;-3276.40;77.40
22562;DHT22;11447;50.562;8.504;2023-03-12T05:53:20;-3276.50;77.40
22562;DHT22;11447;50.562;8.504;2023-03-12T05:55:49;-3276.40;77.40
22562;DHT22;11447;50.562;8.504;2023-03-12T05:58:16;-3276.50;77.40
22562;DHT22;11447;50.562;8.504;2023-03-12T06:00:43;-3276.60;77.40
22562;DHT22;11447;50.562;8.504;2023-03-12T06:03:10;-3276.70;77.40
22562;DHT22;11447;50.562;8.504;2023-03-12T06:05:37;-3276.70;77.40
22562;DHT22;11447;50.562;8.504;2023-03-12T06:08:04;0.10;77.40
22562;DHT22;11447;50.562;8.504;2023-03-12T06:10:33;-3276.50;77.40
22562;DHT22;11447;50.562;8.504;2023-03-12T06:13:02;-3276.50;77.40
22562;DHT22;11447;50.562;8.504;2023-03-12T06:15:29;0.00;77.40
22562;DHT22;11447;50.562;8.504;2023-03-12T06:17:55;-3276.60;77.40
22562;DHT22;11447;50.562;8.504;2023-03-12T06:20:24;-3276.70;77.40
22562;DHT22;11447;50.562;8.504;2023-03-12T06:22:53;-3276.70;77.40
22562;DHT22;11447;50.562;8.504;2023-03-12T06:25:20;-3276.70;77.40
22562;DHT22;11447;50.562;8.504;2023-03-12T06:27:47;-3276.70;77.40
22562;DHT22;11447;50.562;8.504;2023-03-12T06:30:13;-3276.70;77.40
22562;DHT22;11447;50.562;8.504;2023-03-12T06:32:40;0.00;77.40
22562;DHT22;11447;50.562;8.504;2023-03-12T06:35:07;0.10;77.40
22562;DHT22;11447;50.562;8.504;2023-03-12T06:37:36;0.10;77.40
22562;DHT22;11447;50.562;8.504;2023-03-12T06:40:03;0.10;77.40
22562;DHT22;11447;50.562;8.504;2023-03-12T06:42:30;0.00;77.40
22562;DHT22;11447;50.562;8.504;2023-03-12T06:44:57;0.10;77.40
22562;DHT22;11447;50.562;8.504;2023-03-12T06:47:24;0.10;77.40
22562;DHT22;11447;50.562;8.504;2023-03-12T06:49:50;0.00;77.40
22562;DHT22;11447;50.562;8.504;2023-03-12T06:52:17;0.10;77.40
22562;DHT22;11447;50.562;8.504;2023-03-12T06:54:43;0.30;77.40
22562;DHT22;11447;50.562;8.504;2023-03-12T06:57:13;0.10;77.40
22562;DHT22;11447;50.562;8.504;2023-03-12T06:59:41;0.50;77.40
22562;DHT22;11447;50.562;8.504;2023-03-12T07:02:09;0.60;77.40
22562;DHT22;11447;50.562;8.504;2023-03-12T07:04:36;0.40;77.40
22562;DHT22;11447;50.562;8.504;2023-03-12T07:07:05;0.40;77.40
22562;DHT22;11447;50.562;8.504;2023-03-12T07:09:36;0.50;77.40
22562;DHT22;11447;50.562;8.504;2023-03-12T07:12:03;0.50;77.40
22562;DHT22;11447;50.562;8.504;2023-03-12T07:14:29;0.30;77.40
22562;DHT22;11447;50.562;8.504;2023-03-12T07:16:58;0.30;77.40
22562;DHT22;11447;50.562;8.504;2023-03-12T07:19:27;0.40;77.40
22562;DHT22;11447;50.562;8.504;2023-03-12T07:21:55;0.70;77.40
22562;DHT22;11447;50.562;8.504;2023-03-12T07:24:22;0.70;77.40
22562;DHT22;11447;50.562;8.504;2023-03-12T07:26:51;0.70;77.40
22562;DHT22;11447;50.562;8.504;2023-03-12T07:29:18;0.80;77.40
22562;DHT22;11447;50.562;8.504;2023-03-12T07:31:44;0.90;77.40
22562;DHT22;11447;50.562;8.504;2023-03-12T07:34:13;0.80;77.40
22562;DHT22;11447;50.562;8.504;2023-03-12T07:36:40;0.90;77.40
22562;DHT22;11447;50.562;8.504;2023-03-12T07:39:09;0.80;77.40
22562;DHT22;11447;50.562;8.504;2023-03-12T07:41:36;1.10;77.20
22562;DHT22;11447;50.562;8.504;2023-03-12T07:44:05;1.20;76.90
22562;DHT22;11447;50.562;8.504;2023-03-12T07:46:31;1.40;76.90
22562;DHT22;11447;50.562;8.504;2023-03-12T07:48:58;1.20;76.70
22562;DHT22;11447;50.562;8.504;2023-03-12T07:51:25;1.20;77.30
22562;DHT22;11447;50.562;8.504;2023-03-12T07:53:52;1.30;77.30
22562;DHT22;11447;50.562;8.504;2023-03-12T07:56:21;1.40;77.20
22562;DHT22;11447;50.562;8.504;2023-03-12T07:58:48;1.40;77.20
22562;DHT22;11447;50.562;8.504;2023-03-12T08:01:17;1.50;76.70
22562;DHT22;11447;50.562;8.504;2023-03-12T08:03:44;1.40;77.40
22562;DHT22;11447;50.562;8.504;2023-03-12T08:06:11;1.10;77.40
22562;DHT22;11447;50.562;8.504;2023-03-12T08:08:37;1.20;77.40
22562;DHT22;11447;50.562;8.504;2023-03-12T08:11:09;1.40;77.40
22562;DHT22;11447;50.562;8.504;2023-03-12T08:13:36;1.40;77.40
22562;DHT22;11447;50.562;8.504;2023-03-12T08:16:03;1.50;77.30
22562;DHT22;11447;50.562;8.504;2023-03-12T08:18:30;1.30;77.20
22562;DHT22;11447;50.562;8.504;2023-03-12T08:20:56;1.60;77.10
22562;DHT22;11447;50.562;8.504;2023-03-12T08:23:23;1.80;76.60
22562;DHT22;11447;50.562;8.504;2023-03-12T08:25:49;1.70;77.20
22562;DHT22;11447;50.562;8.504;2023-03-12T08:28:16;1.70;77.20
22562;DHT22;11447;50.562;8.504;2023-03-12T08:30:44;1.60;76.90
22562;DHT22;11447;50.562;8.504;2023-03-12T08:33:16;1.70;77.20
22562;DHT22;11447;50.562;8.504;2023-03-12T08:35:43;1.70;77.20
22562;DHT22;11447;50.562;8.504;2023-03-12T08:38:09;1.80;77.40
22562;DHT22;11447;50.562;8.504;2023-03-12T08:40:36;1.50;77.30
22562;DHT22;11447;50.562;8.504;2023-03-12T08:43:03;1.40;77.40
22562;DHT22;11447;50.562;8.504;2023-03-12T08:45:29;1.40;77.40
22562;DHT22;11447;50.562;8.504;2023-03-12T08:47:59;1.50;77.20
22562;DHT22;11447;50.562;8.504;2023-03-12T08:50:25;1.50;77.40
22562;DHT22;11447;50.562;8.504;2023-03-12T08:52:54;1.60;77.40
22562;DHT22;11447;50.562;8.504;2023-03-12T08:55:21;1.70;77.20
22562;DHT22;11447;50.562;8.504;2023-03-12T08:57:48;1.90;77.10
22562;DHT22;11447;50.562;8.504;2023-03-12T09:00:17;1.90;76.90
22562;DHT22;11447;50.562;8.504;2023-03-12T09:02:46;1.90;77.40
22562;DHT22;11447;50.562;8.504;2023-03-12T09:05:13;1.80;77.40
22562;DHT22;11447;50.562;8.504;2023-03-12T09:07:39;1.80;77.40
22562;DHT22;11447;50.562;8.504;2023-03-12T09:10:09;1.60;77.40
22562;DHT22;11447;50.562;8.504;2023-03-12T09:12:35;1.60;77.40
22562;DHT22;11447;50.562;8.504;2023-03-12T09:15:02;1.60;77.40
22562;DHT22;11447;50.562;8.504;2023-03-12T09:17:30;1.80;77.20
22562;DHT22;11447;50.562;8.504;2023-03-12T09:19:57;2.00;77.30
22562;DHT22;11447;50.562;8.504;2023-03-12T09:22:23;2.20;77.20
22562;DHT22;11447;50.562;8.504;2023-03-12T09:24:50;2.10;77.20
22562;DHT22;11447;50.562;8.504;2023-03-12T09:27:17;2.10;77.10
22562;DHT22;11447;50.562;8.504;2023-03-12T09:29:45;2.10;77.00
22562;DHT22;11447;50.562;8.504;2023-03-12T09:32:25;1.90;76.80
22562;DHT22;11447;50.562;8.504;2023-03-12T09:34:53;2.20;77.20
22562;DHT22;11447;50.562;8.504;2023-03-12T09:37:22;2.20;77.20
22562;DHT22;11447;50.562;8.504;2023-03-12T09:39:52;2.20;77.40
22562;DHT22;11447;50.562;8.504;2023-03-12T09:42:38;2.10;77.40
22562;DHT22;11447;50.562;8.504;2023-03-12T09:45:10;2.20;77.30
22562;DHT22;11447;50.562;8.504;2023-03-12T09:47:50;2.30;77.20
22562;DHT22;11447;50.562;8.504;2023-03-12T09:52:45;2.50;76.90
22562;DHT22;11447;50.562;8.504;2023-03-12T09:55:14;2.30;77.40
22562;DHT22;11447;50.562;8.504;2023-03-12T09:57:45;2.40;77.20
22562;DHT22;11447;50.562;8.504;2023-03-12T10:00:13;2.40;77.20
22562;DHT22;11447;50.562;8.504;2023-03-12T10:16:16;2.60;77.40
22562;DHT22;11447;50.562;8.504;2023-03-12T10:24:15;2.70;77.40
22562;DHT22;11447;50.562;8.504;2023-03-12T10:26:51;2.60;77.40
22562;DHT22;11447;50.562;8.504;2023-03-12T10:29:29;2.80;77.40
22562;DHT22;11447;50.562;8.504;2023-03-12T10:39:49;3.10;77.40
22562;DHT22;11447;50.562;8.504;2023-03-12T10:42:20;3.00;77.40
22562;DHT22;11447;50.562;8.504;2023-03-12T10:47:35;3.10;77.40
22562;DHT22;11447;50.562;8.504;2023-03-12T10:50:13;3.10;77.40
22562;DHT22;11447;50.562;8.504;2023-03-12T10:52:43;3.30;77.40
22562;DHT22;11447;50.562;8.504;2023-03-12T10:55:19;3.00;77.40
22562;DHT22;11447;50.562;8.504;2023-03-12T10:57:46;3.00;77.40
22562;DHT22;11447;50.562;8.504;2023-03-12T11:00:17;3.20;77.40
22562;DHT22;11447;50.562;8.504;2023-03-12T11:02:44;3.00;77.40
22562;DHT22;11447;50.562;8.504;2023-03-12T11:05:45;3.00;77.40
22562;DHT22;11447;50.562;8.504;2023-03-12T11:08:12;3.00;77.40
22562;DHT22;11447;50.562;8.504;2023-03-12T11:10:45;3.10;77.40
22562;DHT22;11447;50.562;8.504;2023-03-12T11:13:28;3.20;77.40
22562;DHT22;11447;50.562;8.504;2023-03-12T11:15:56;3.10;77.40
22562;DHT22;11447;50.562;8.504;2023-03-12T11:18:24;3.30;77.40
22562;DHT22;11447;50.562;8.504;2023-03-12T11:20:55;3.30;77.40
22562;DHT22;11447;50.562;8.504;2023-03-12T11:23:24;3.40;77.40
22562;DHT22;11447;50.562;8.504;2023-03-12T11:25:56;3.60;77.40
22562;DHT22;11447;50.562;8.504;2023-03-12T11:28:31;3.40;77.40
22562;DHT22;11447;50.562;8.504;2023-03-12T11:31:00;3.50;77.40
22562;DHT22;11447;50.562;8.504;2023-03-12T11:33:29;3.20;77.40
22562;DHT22;11447;50.562;8.504;2023-03-12T11:38:44;3.30;77.40
22562;DHT22;11447;50.562;8.504;2023-03-12T11:46:32;3.00;77.40
22562;DHT22;11447;50.562;8.504;2023-03-12T11:49:08;3.30;77.40
22562;DHT22;11447;50.562;8.504;2023-03-12T11:51:43;3.60;77.40
22562;DHT22;11447;50.562;8.504;2023-03-12T11:56:39;3.60;77.40
22562;DHT22;11447;50.562;8.504;2023-03-12T12:09:34;3.10;77.40
22562;DHT22;11447;50.562;8.504;2023-03-12T12:32:03;3.30;77.40
22562;DHT22;11447;50.562;8.504;2023-03-12T12:37:19;3.00;77.40
22562;DHT22;11447;50.562;8.504;2023-03-12T12:40:22;3.30;77.40
22562;DHT22;11447;50.562;8.504;2023-03-12T12:42:46;3.40;77.40
22562;DHT22;11447;50.562;8.504;2023-03-12T12:45:16;3.70;77.40
22562;DHT22;11447;50.562;8.504;2023-03-12T12:47:48;4.00;77.40
22562;DHT22;11447;50.562;8.504;2023-03-12T12:50:19;4.00;77.40
22562;DHT22;11447;50.562;8.504;2023-03-12T12:52:49;4.10;77.40
22562;DHT22;11447;50.562;8.504;2023-03-12T12:55:23;4.20;77.40
22562;DHT22;11447;50.562;8.504;2023-03-12T13:02:54;4.40;77.40
22562;DHT22;11447;50.562;8.504;2023-03-12T13:08:03;4.60;77.40
22562;DHT22;11447;50.562;8.504;2023-03-12T13:13:08;4.70;77.40
22562;DHT22;11447;50.562;8.504;2023-03-12T13:15:39;5.00;77.40
22562;DHT22;11447;50.562;8.504;2023-03-12T13:18:17;4.80;77.40
22562;DHT22;11447;50.562;8.504;2023-03-12T13:20:59;5.10;77.40
22562;DHT22;11447;50.562;8.504;2023-03-12T13:31:35;4.90;77.40
22562;DHT22;11447;50.562;8.504;2023-03-12T13:36:33;5.00;77.40
22562;DHT22;11447;50.562;8.504;2023-03-12T13:47:04;5.10;77.40
22562;DHT22;11447;50.562;8.504;2023-03-12T13:49:42;5.20;77.40
22562;DHT22;11447;50.562;8.504;2023-03-12T13:54:40;5.40;77.40
22562;DHT22;11447;50.562;8.504;2023-03-12T13:57:19;5.20;77.40
22562;DHT22;11447;50.562;8.504;2023-03-12T13:59:48;5.30;77.40
22562;DHT22;11447;50.562;8.504;2023-03-12T14:02:24;5.40;77.40
22562;DHT22;11447;50.562;8.504;2023-03-12T14:04:51;5.00;77.40
22562;DHT22;11447;50.562;8.504;2023-03-12T14:12:48;5.10;77.40
22562;DHT22;11447;50.562;8.504;2023-03-12T14:17:38;5.20;77.40
22562;DHT22;11447;50.562;8.504;2023-03-12T14:22:51;5.20;77.40
22562;DHT22;11447;50.562;8.504;2023-03-12T14:25:27;5.10;77.40
22562;DHT22;11447;50.562;8.504;2023-03-12T14:27:56;5.10;77.40
22562;DHT22;11447;50.562;8.504;2023-03-12T14:30:24;5.10;77.40
22562;DHT22;11447;50.562;8.504;2023-03-12T14:32:55;5.30;77.40
22562;DHT22;11447;50.562;8.504;2023-03-12T14:35:41;5.20;77.40
22562;DHT22;11447;50.562;8.504;2023-03-12T14:40:50;5.30;77.40
22562;DHT22;11447;50.562;8.504;2023-03-12T14:43:22;5.30;77.40
22562;DHT22;11447;50.562;8.504;2023-03-12T14:45:50;5.30;77.40
22562;DHT22;11447;50.562;8.504;2023-03-12T14:48:26;5.30;77.40
22562;DHT22;11447;50.562;8.504;2023-03-12T14:50:54;5.50;77.40
22562;DHT22;11447;50.562;8.504;2023-03-12T14:53:23;5.40;77.40
22562;DHT22;11447;50.562;8.504;2023-03-12T14:55:59;5.50;77.40
22562;DHT22;11447;50.562;8.504;2023-03-12T14:58:26;5.20;77.40
22562;DHT22;11447;50.562;8.504;2023-03-12T15:00:53;5.40;77.40
22562;DHT22;11447;50.562;8.504;2023-03-12T15:03:20;5.40;77.40
22562;DHT22;11447;50.562;8.504;2023-03-12T15:05:47;5.30;77.40
22562;DHT22;11447;50.562;8.504;2023-03-12T15:08:14;5.50;77.40
22562;DHT22;11447;50.562;8.504;2023-03-12T15:10:49;5.40;77.40
22562;DHT22;11447;50.562;8.504;2023-03-12T15:13:18;5.40;77.40
22562;DHT22;11447;50.562;8.504;2023-03-12T15:15:46;5.30;77.40
22562;DHT22;11447;50.562;8.504;2023-03-12T15:20:41;5.40;77.40
22562;DHT22;11447;50.562;8.504;2023-03-12T15:23:08;5.40;77.40
22562;DHT22;11447;50.562;8.504;2023-03-12T15:25:40;5.50;77.40
22562;DHT22;11447;50.562;8.504;2023-03-12T15:30:37;5.30;77.40
22562;DHT22;11447;50.562;8.504;2023-03-12T15:35:33;5.70;77.40
22562;DHT22;11447;50.562;8.504;2023-03-12T15:38:00;5.60;77.40
22562;DHT22;11447;50.562;8.504;2023-03-12T15:40:28;5.80;77.40
22562;DHT22;11447;50.562;8.504;2023-03-12T15:42:55;5.80;77.40
22562;DHT22;11447;50.562;8.504;2023-03-12T15:45:27;5.70;77.40
22562;DHT22;11447;50.562;8.504;2023-03-12T15:47:55;5.70;77.40
22562;DHT22;11447;50.562;8.504;2023-03-12T15:50:25;5.60;77.40
22562;DHT22;11447;50.562;8.504;2023-03-12T15:55:27;5.80;77.40
22562;DHT22;11447;50.562;8.504;2023-03-12T15:57:54;5.90;77.40
22562;DHT22;11447;50.562;8.504;2023-03-12T16:00:23;5.70;77.40
22562;DHT22;11447;50.562;8.504;2023-03-12T16:05:17;5.60;77.40
22562;DHT22;11447;50.562;8.504;2023-03-12T16:07:44;5.70;77.40
22562;DHT22;11447;50.562;8.504;2023-03-12T16:10:12;5.80;77.40
22562;DHT22;11447;50.562;8.504;2023-03-12T16:12:40;5.80;77.40
22562;DHT22;11447;50.562;8.504;2023-03-12T16:15:11;5.70;77.40
22562;DHT22;11447;50.562;8.504;2023-03-12T16:17:38;5.80;77.40
22562;DHT22;11447;50.562;8.504;2023-03-12T16:20:11;5.70;77.40
22562;DHT22;11447;50.562;8.504;2023-03-12T16:22:38;5.90;77.40
22562;DHT22;11447;50.562;8.504;2023-03-12T16:25:05;5.90;77.40
22562;DHT22;11447;50.562;8.504;2023-03-12T16:27:31;5.90;77.40
22562;DHT22;11447;50.562;8.504;2023-03-12T16:30:09;5.90;77.40
22562;DHT22;11447;50.562;8.504;2023-03-12T16:32:37;6.00;77.40
22562;DHT22;11447;50.562;8.504;2023-03-12T16:35:17;5.90;77.40
22562;DHT22;11447;50.562;8.504;2023-03-12T16:37:45;5.80;77.40
22562;DHT22;11447;50.562;8.504;2023-03-12T16:40:13;5.90;77.40
22562;DHT22;11447;50.562;8.504;2023-03-12T16:42:57;5.90;77.40
22562;DHT22;11447;50.562;8.504;2023-03-12T16:45:28;6.00;77.40
22562;DHT22;11447;50.562;8.504;2023-03-12T16:48:01;6.00;77.40
22562;DHT22;11447;50.562;8.504;2023-03-12T16:50:28;6.00;77.40
22562;DHT22;11447;50.562;8.504;2023-03-12T16:52:57;5.90;77.40
22562;DHT22;11447;50.562;8.504;2023-03-12T16:55:25;6.10;77.40
22562;DHT22;11447;50.562;8.504;2023-03-12T16:57:53;6.00;77.40
22562;DHT22;11447;50.562;8.504;2023-03-12T17:00:21;6.00;77.40
22562;DHT22;11447;50.562;8.504;2023-03-12T17:02:49;6.00;77.40
22562;DHT22;11447;50.562;8.504;2023-03-12T17:05:20;6.10;77.40
22562;DHT22;11447;50.562;8.504;2023-03-12T17:07:46;6.00;77.40
22562;DHT22;11447;50.562;8.504;2023-03-12T17:10:13;5.90;77.40
22562;DHT22;11447;50.562;8.504;2023-03-12T17:12:40;6.00;77.40
22562;DHT22;11447;50.562;8.504;2023-03-12T17:15:14;6.00;77.40
22562;DHT22;11447;50.562;8.504;2023-03-12T17:17:42;6.00;77.40
22562;DHT22;11447;50.562;8.504;2023-03-12T17:20:09;5.90;77.40
22562;DHT22;11447;50.562;8.504;2023-03-12T17:22:39;6.00;77.40
22562;DHT22;11447;50.562;8.504;2023-03-12T17:25:06;6.00;77.40
22562;DHT22;11447;50.562;8.504;2023-03-12T17:27:33;6.10;77.40
22562;DHT22;11447;50.562;8.504;2023-03-12T17:30:00;5.80;77.40
22562;DHT22;11447;50.562;8.504;2023-03-12T17:32:28;6.10;77.40
22562;DHT22;11447;50.562;8.504;2023-03-12T17:34:55;5.90;77.40
22562;DHT22;11447;50.562;8.504;2023-03-12T17:37:22;5.80;77.40
22562;DHT22;11447;50.562;8.504;2023-03-12T17:39:49;5.80;77.40
22562;DHT22;11447;50.562;8.504;2023-03-12T17:42:15;5.90;77.40
22562;DHT22;11447;50.562;8.504;2023-03-12T17:44:44;6.00;77.40
22562;DHT22;11447;50.562;8.504;2023-03-12T17:47:11;5.90;77.40
22562;DHT22;11447;50.562;8.504;2023-03-12T17:49:38;6.00;77.40
22562;DHT22;11447;50.562;8.504;2023-03-12T17:52:05;6.10;77.40
22562;DHT22;11447;50.562;8.504;2023-03-12T17:54:34;6.10;77.40
22562;DHT22;11447;50.562;8.504;2023-03-12T17:57:01;6.00;77.40
22562;DHT22;11447;50.562;8.504;2023-03-12T17:59:28;6.10;77.40
22562;DHT22;11447;50.562;8.504;2023-03-12T18:01:54;6.20;77.40
22562;DHT22;11447;50.562;8.504;2023-03-12T18:04:21;6.00;77.40
22562;DHT22;11447;50.562;8.504;2023-03-12T18:06:47;6.20;77.40